sensor_id;sensor_type;location;lat;lon;timestamp;temperature;humidity
9116;DHT22;4593;53.652;10.168;2023-07-22T00:01:24;13.90;97.60
9116;DHT22;4593;53.652;10.168;2023-07-22T00:03:49;13.90;97.80
9116;DHT22;4593;53.652;10.168;2023-07-22T00:06:15;13.90;98.00
9116;DHT22;4593;53.652;10.168;2023-07-22T00:08:41;13.90;97.90
9116;DHT22;4593;53.652;10.168;2023-07-22T00:11:07;13.90;98.00
9116;DHT22;4593;53.652;10.168;2023-07-22T00:13:34;13.90;98.20
9116;DHT22;4593;53.652;10.168;2023-07-22T00:16:00;13.90;98.20
9116;DHT22;4593;53.652;10.168;2023-07-22T00:18:28;13.90;98.30
9116;DHT22;4593;53.652;10.168;2023-07-22T00:20:54;13.90;98.10
9116;DHT22;4593;53.652;10.168;2023-07-22T00:23:20;13.90;98.20
9116;DHT22;4593;53.652;10.168;2023-07-22T00:25:49;13.80;98.10
9116;DHT22;4593;53.652;10.168;2023-07-22T00:28:15;13.80;98.20
9116;DHT22;4593;53.652;10.168;2023-07-22T00:30:41;13.70;98.20
9116;DHT22;4593;53.652;10.168;2023-07-22T00:33:07;13.70;98.40
9116;DHT22;4593;53.652;10.168;2023-07-22T00:35:33;13.70;98.50
9116;DHT22;4593;53.652;10.168;2023-07-22T00:38:00;13.70;98.50
9116;DHT22;4593;53.652;10.168;2023-07-22T00:40:25;13.80;98.30
9116;DHT22;4593;53.652;10.168;2023-07-22T00:42:51;13.80;98.10
9116;DHT22;4593;53.652;10.168;2023-07-22T00:45:17;13.70;98.00
9116;DHT22;4593;53.652;10.168;2023-07-22T00:47:44;13.70;98.20
9116;DHT22;4593;53.652;10.168;2023-07-22T00:50:09;13.70;98.20
9116;DHT22;4593;53.652;10.168;2023-07-22T00:52:35;13.80;98.30
9116;DHT22;4593;53.652;10.168;2023-07-22T00:55:02;13.90;98.30
9116;DHT22;4593;53.652;10.168;2023-07-22T00:57:28;13.90;98.30
9116;DHT22;4593;53.652;10.168;2023-07-22T00:59:54;14.00;97.90
9116;DHT22;4593;53.652;10.168;2023-07-22T01:02:20;13.90;97.80
9116;DHT22;4593;53.652;10.168;2023-07-22T01:04:46;13.90;97.90
9116;DHT22;4593;53.652;10.168;2023-07-22T01:07:12;13.90;97.90
9116;DHT22;4593;53.652;10.168;2023-07-22T01:09:42;13.90;97.80
9116;DHT22;4593;53.652;10.168;2023-07-22T01:12:08;13.80;97.80
9116;DHT22;4593;53.652;10.168;2023-07-22T01:14:37;13.70;97.90
9116;DHT22;4593;53.652;10.168;2023-07-22T01:17:07;13.60;97.90
9116;DHT22;4593;53.652;10.168;2023-07-22T01:19:34;13.60;98.00
9116;DHT22;4593;53.652;10.168;2023-07-22T01:22:02;13.50;98.40
9116;DHT22;4593;53.652;10.168;2023-07-22T01:24:29;13.50;98.70
9116;DHT22;4593;53.652;10.168;2023-07-22T01:26:55;13.50;98.50
9116;DHT22;4593;53.652;10.168;2023-07-22T01:29:22;13.50;98.50
9116;DHT22;4593;53.652;10.168;2023-07-22T01:31:51;13.40;98.60
9116;DHT22;4593;53.652;10.168;2023-07-22T01:34:17;13.30;98.40
9116;DHT22;4593;53.652;10.168;2023-07-22T01:36:44;13.30;98.90
9116;DHT22;4593;53.652;10.168;2023-07-22T01:39:10;13.40;99.20
9116;DHT22;4593;53.652;10.168;2023-07-22T01:41:38;13.40;98.80
9116;DHT22;4593;53.652;10.168;2023-07-22T01:44:04;13.40;98.60
9116;DHT22;4593;53.652;10.168;2023-07-22T01:46:29;13.30;98.50
9116;DHT22;4593;53.652;10.168;2023-07-22T01:48:55;13.30;99.00
9116;DHT22;4593;53.652;10.168;2023-07-22T01:51:21;13.20;98.70
9116;DHT22;4593;53.652;10.168;2023-07-22T01:53:47;13.20;99.10
9116;DHT22;4593;53.652;10.168;2023-07-22T01:56:13;13.20;99.20
9116;DHT22;4593;53.652;10.168;2023-07-22T01:58:39;13.20;99.10
9116;DHT22;4593;53.652;10.168;2023-07-22T02:01:04;13.20;99.00
9116;DHT22;4593;53.652;10.168;2023-07-22T02:03:30;13.20;99.00
9116;DHT22;4593;53.652;10.168;2023-07-22T02:06:03;13.10;99.20
9116;DHT22;4593;53.652;10.168;2023-07-22T02:08:29;13.00;99.30
9116;DHT22;4593;53.652;10.168;2023-07-22T02:11:00;13.00;99.20
9116;DHT22;4593;53.652;10.168;2023-07-22T02:13:26;13.00;99.30
9116;DHT22;4593;53.652;10.168;2023-07-22T02:15:51;12.90;99.30
9116;DHT22;4593;53.652;10.168;2023-07-22T02:18:17;12.90;99.20
9116;DHT22;4593;53.652;10.168;2023-07-22T02:20:43;12.90;99.50
9116;DHT22;4593;53.652;10.168;2023-07-22T02:23:08;12.80;99.50
9116;DHT22;4593;53.652;10.168;2023-07-22T02:25:35;12.80;99.80
9116;DHT22;4593;53.652;10.168;2023-07-22T02:28:01;12.80;99.80
9116;DHT22;4593;53.652;10.168;2023-07-22T02:30:27;12.80;99.90
9116;DHT22;4593;53.652;10.168;2023-07-22T02:32:52;12.80;99.90
9116;DHT22;4593;53.652;10.168;2023-07-22T02:35:18;12.80;99.70
9116;DHT22;4593;53.652;10.168;2023-07-22T02:37:43;12.70;99.90
9116;DHT22;4593;53.652;10.168;2023-07-22T02:40:09;12.80;100.00
9116;DHT22;4593;53.652;10.168;2023-07-22T02:42:39;12.90;100.00
9116;DHT22;4593;53.652;10.168;2023-07-22T02:45:05;12.90;100.00
9116;DHT22;4593;53.652;10.168;2023-07-22T02:47:33;13.00;99.90
9116;DHT22;4593;53.652;10.168;2023-07-22T02:50:00;13.10;99.80
9116;DHT22;4593;53.652;10.168;2023-07-22T02:52:26;13.20;99.70
9116;DHT22;4593;53.652;10.168;2023-07-22T02:55:13;13.20;99.30
9116;DHT22;4593;53.652;10.168;2023-07-22T02:57:39;13.20;99.30
9116;DHT22;4593;53.652;10.168;2023-07-22T03:00:06;13.20;99.20
9116;DHT22;4593;53.652;10.168;2023-07-22T03:02:37;13.10;99.20
9116;DHT22;4593;53.652;10.168;2023-07-22T03:05:04;13.10;99.10
9116;DHT22;4593;53.652;10.168;2023-07-22T03:07:37;13.00;99.00
9116;DHT22;4593;53.652;10.168;2023-07-22T03:10:06;12.90;99.20
9116;DHT22;4593;53.652;10.168;2023-07-22T03:12:33;12.90;99.10
9116;DHT22;4593;53.652;10.168;2023-07-22T03:14:59;12.80;99.40
9116;DHT22;4593;53.652;10.168;2023-07-22T03:17:25;12.80;99.50
9116;DHT22;4593;53.652;10.168;2023-07-22T03:19:50;12.80;99.50
9116;DHT22;4593;53.652;10.168;2023-07-22T03:22:16;12.70;99.50
9116;DHT22;4593;53.652;10.168;2023-07-22T03:24:45;12.70;99.40
9116;DHT22;4593;53.652;10.168;2023-07-22T03:27:11;12.70;99.60
9116;DHT22;4593;53.652;10.168;2023-07-22T03:29:38;12.70;99.70
9116;DHT22;4593;53.652;10.168;2023-07-22T03:32:04;12.70;99.70
9116;DHT22;4593;53.652;10.168;2023-07-22T03:34:30;12.80;99.80
9116;DHT22;4593;53.652;10.168;2023-07-22T03:36:57;12.90;99.80
9116;DHT22;4593;53.652;10.168;2023-07-22T03:39:22;13.00;99.60
9116;DHT22;4593;53.652;10.168;2023-07-22T03:41:48;13.00;99.50
9116;DHT22;4593;53.652;10.168;2023-07-22T03:44:14;13.10;99.60
9116;DHT22;4593;53.652;10.168;2023-07-22T03:46:39;13.20;98.80
9116;DHT22;4593;53.652;10.168;2023-07-22T03:49:05;13.20;98.80
9116;DHT22;4593;53.652;10.168;2023-07-22T03:51:31;13.20;98.90
9116;DHT22;4593;53.652;10.168;2023-07-22T03:53:57;13.20;98.80
9116;DHT22;4593;53.652;10.168;2023-07-22T03:56:23;13.20;98.90
9116;DHT22;4593;53.652;10.168;2023-07-22T03:58:52;13.30;99.20
9116;DHT22;4593;53.652;10.168;2023-07-22T04:01:18;13.40;98.80
9116;DHT22;4593;53.652;10.168;2023-07-22T04:03:44;13.50;98.50
9116;DHT22;4593;53.652;10.168;2023-07-22T04:06:10;13.50;98.40
9116;DHT22;4593;53.652;10.168;2023-07-22T04:08:35;13.60;98.50
9116;DHT22;4593;53.652;10.168;2023-07-22T04:11:01;13.60;97.90
9116;DHT22;4593;53.652;10.168;2023-07-22T04:13:28;13.60;97.70
9116;DHT22;4593;53.652;10.168;2023-07-22T04:15:53;13.70;97.70
9116;DHT22;4593;53.652;10.168;2023-07-22T04:18:20;13.80;97.70
9116;DHT22;4593;53.652;10.168;2023-07-22T04:20:46;13.80;97.50
9116;DHT22;4593;53.652;10.168;2023-07-22T04:23:13;13.90;97.30
9116;DHT22;4593;53.652;10.168;2023-07-22T04:25:44;14.00;96.30
9116;DHT22;4593;53.652;10.168;2023-07-22T04:28:13;14.00;96.70
9116;DHT22;4593;53.652;10.168;2023-07-22T04:30:39;13.90;95.70
9116;DHT22;4593;53.652;10.168;2023-07-22T04:33:05;13.90;95.90
9116;DHT22;4593;53.652;10.168;2023-07-22T04:35:37;13.90;95.80
9116;DHT22;4593;53.652;10.168;2023-07-22T04:38:03;13.90;96.40
9116;DHT22;4593;53.652;10.168;2023-07-22T04:40:29;13.90;95.90
9116;DHT22;4593;53.652;10.168;2023-07-22T04:42:56;13.90;96.20
9116;DHT22;4593;53.652;10.168;2023-07-22T04:45:22;14.00;96.30
9116;DHT22;4593;53.652;10.168;2023-07-22T04:47:49;14.20;96.10
9116;DHT22;4593;53.652;10.168;2023-07-22T04:50:16;14.30;95.50
9116;DHT22;4593;53.652;10.168;2023-07-22T04:52:44;14.40;94.50
9116;DHT22;4593;53.652;10.168;2023-07-22T04:55:10;14.50;93.90
9116;DHT22;4593;53.652;10.168;2023-07-22T04:57:37;14.50;94.40
9116;DHT22;4593;53.652;10.168;2023-07-22T05:00:03;14.50;94.70
9116;DHT22;4593;53.652;10.168;2023-07-22T05:02:30;14.60;94.70
9116;DHT22;4593;53.652;10.168;2023-07-22T05:04:58;14.70;94.40
9116;DHT22;4593;53.652;10.168;2023-07-22T05:07:24;14.90;93.70
9116;DHT22;4593;53.652;10.168;2023-07-22T05:09:50;14.80;91.70
9116;DHT22;4593;53.652;10.168;2023-07-22T05:12:17;14.90;92.30
9116;DHT22;4593;53.652;10.168;2023-07-22T05:14:45;15.00;92.30
9116;DHT22;4593;53.652;10.168;2023-07-22T05:17:11;15.10;91.60
9116;DHT22;4593;53.652;10.168;2023-07-22T05:19:36;15.20;90.70
9116;DHT22;4593;53.652;10.168;2023-07-22T05:22:02;15.10;90.30
9116;DHT22;4593;53.652;10.168;2023-07-22T05:24:28;15.30;90.40
9116;DHT22;4593;53.652;10.168;2023-07-22T05:26:53;15.30;90.30
9116;DHT22;4593;53.652;10.168;2023-07-22T05:29:19;15.50;90.30
9116;DHT22;4593;53.652;10.168;2023-07-22T05:31:45;15.60;89.80
9116;DHT22;4593;53.652;10.168;2023-07-22T05:34:12;15.70;89.80
9116;DHT22;4593;53.652;10.168;2023-07-22T05:36:38;15.70;89.20
9116;DHT22;4593;53.652;10.168;2023-07-22T05:39:03;15.70;89.10
9116;DHT22;4593;53.652;10.168;2023-07-22T05:41:29;15.70;89.20
9116;DHT22;4593;53.652;10.168;2023-07-22T05:43:55;15.80;89.30
9116;DHT22;4593;53.652;10.168;2023-07-22T05:46:21;16.00;89.60
9116;DHT22;4593;53.652;10.168;2023-07-22T05:48:46;16.20;87.50
9116;DHT22;4593;53.652;10.168;2023-07-22T05:51:12;16.20;87.50
9116;DHT22;4593;53.652;10.168;2023-07-22T05:53:38;16.20;87.00
9116;DHT22;4593;53.652;10.168;2023-07-22T05:56:04;16.30;87.10
9116;DHT22;4593;53.652;10.168;2023-07-22T05:58:30;16.40;86.90
9116;DHT22;4593;53.652;10.168;2023-07-22T06:00:56;16.50;86.40
9116;DHT22;4593;53.652;10.168;2023-07-22T06:03:22;16.60;86.00
9116;DHT22;4593;53.652;10.168;2023-07-22T06:05:48;16.80;85.30
9116;DHT22;4593;53.652;10.168;2023-07-22T06:08:13;17.00;85.10
9116;DHT22;4593;53.652;10.168;2023-07-22T06:10:42;17.20;83.80
9116;DHT22;4593;53.652;10.168;2023-07-22T06:13:08;17.20;82.70
9116;DHT22;4593;53.652;10.168;2023-07-22T06:15:34;17.30;83.00
9116;DHT22;4593;53.652;10.168;2023-07-22T06:18:00;17.40;82.40
9116;DHT22;4593;53.652;10.168;2023-07-22T06:20:26;17.30;82.00
9116;DHT22;4593;53.652;10.168;2023-07-22T06:22:52;17.10;82.00
9116;DHT22;4593;53.652;10.168;2023-07-22T06:25:17;16.90;82.60
9116;DHT22;4593;53.652;10.168;2023-07-22T06:27:43;16.90;83.50
9116;DHT22;4593;53.652;10.168;2023-07-22T06:30:09;17.10;83.60
9116;DHT22;4593;53.652;10.168;2023-07-22T06:32:36;17.50;82.50
9116;DHT22;4593;53.652;10.168;2023-07-22T06:35:02;17.80;81.80
9116;DHT22;4593;53.652;10.168;2023-07-22T06:37:28;17.90;80.70
9116;DHT22;4593;53.652;10.168;2023-07-22T06:39:54;17.70;81.40
9116;DHT22;4593;53.652;10.168;2023-07-22T06:42:20;17.50;81.70
9116;DHT22;4593;53.652;10.168;2023-07-22T06:44:45;17.30;81.80
9116;DHT22;4593;53.652;10.168;2023-07-22T06:47:11;17.50;82.10
9116;DHT22;4593;53.652;10.168;2023-07-22T06:49:37;17.50;82.20
9116;DHT22;4593;53.652;10.168;2023-07-22T06:52:03;17.60;82.70
9116;DHT22;4593;53.652;10.168;2023-07-22T06:54:28;17.60;82.60
9116;DHT22;4593;53.652;10.168;2023-07-22T06:56:54;17.70;82.50
9116;DHT22;4593;53.652;10.168;2023-07-22T06:59:19;18.20;80.90
9116;DHT22;4593;53.652;10.168;2023-07-22T07:01:45;18.70;79.50
9116;DHT22;4593;53.652;10.168;2023-07-22T07:04:11;18.80;78.20
9116;DHT22;4593;53.652;10.168;2023-07-22T07:06:36;18.90;77.60
9116;DHT22;4593;53.652;10.168;2023-07-22T07:09:03;19.20;77.90
9116;DHT22;4593;53.652;10.168;2023-07-22T07:11:31;19.50;76.40
9116;DHT22;4593;53.652;10.168;2023-07-22T07:13:57;19.60;72.80
9116;DHT22;4593;53.652;10.168;2023-07-22T07:16:28;19.60;71.30
9116;DHT22;4593;53.652;10.168;2023-07-22T07:18:54;20.00;69.90
9116;DHT22;4593;53.652;10.168;2023-07-22T07:21:21;20.30;69.30
9116;DHT22;4593;53.652;10.168;2023-07-22T07:23:48;20.60;68.00
9116;DHT22;4593;53.652;10.168;2023-07-22T07:26:14;20.50;66.00
9116;DHT22;4593;53.652;10.168;2023-07-22T07:28:40;20.50;69.40
9116;DHT22;4593;53.652;10.168;2023-07-22T07:31:06;20.70;68.60
9116;DHT22;4593;53.652;10.168;2023-07-22T07:33:33;20.90;65.70
9116;DHT22;4593;53.652;10.168;2023-07-22T07:35:59;20.90;65.80
9116;DHT22;4593;53.652;10.168;2023-07-22T07:38:25;21.20;64.70
9116;DHT22;4593;53.652;10.168;2023-07-22T07:40:57;21.00;61.90
9116;DHT22;4593;53.652;10.168;2023-07-22T07:43:23;20.30;63.10
9116;DHT22;4593;53.652;10.168;2023-07-22T07:45:49;19.80;64.90
9116;DHT22;4593;53.652;10.168;2023-07-22T07:48:16;19.90;68.30
9116;DHT22;4593;53.652;10.168;2023-07-22T07:50:42;20.60;68.20
9116;DHT22;4593;53.652;10.168;2023-07-22T07:53:08;21.10;62.40
9116;DHT22;4593;53.652;10.168;2023-07-22T07:55:34;21.70;61.30
9116;DHT22;4593;53.652;10.168;2023-07-22T07:57:59;21.40;59.60
9116;DHT22;4593;53.652;10.168;2023-07-22T08:00:25;21.20;61.20
9116;DHT22;4593;53.652;10.168;2023-07-22T08:02:50;21.20;58.40
9116;DHT22;4593;53.652;10.168;2023-07-22T08:05:16;21.10;59.40
9116;DHT22;4593;53.652;10.168;2023-07-22T08:07:42;21.30;61.20
9116;DHT22;4593;53.652;10.168;2023-07-22T08:10:08;21.70;63.10
9116;DHT22;4593;53.652;10.168;2023-07-22T08:12:35;21.80;60.10
9116;DHT22;4593;53.652;10.168;2023-07-22T08:15:03;21.90;62.70
9116;DHT22;4593;53.652;10.168;2023-07-22T08:17:29;22.10;59.10
9116;DHT22;4593;53.652;10.168;2023-07-22T08:19:54;21.60;61.20
9116;DHT22;4593;53.652;10.168;2023-07-22T08:22:20;21.60;60.50
9116;DHT22;4593;53.652;10.168;2023-07-22T08:24:46;21.80;61.50
9116;DHT22;4593;53.652;10.168;2023-07-22T08:27:11;21.70;60.10
9116;DHT22;4593;53.652;10.168;2023-07-22T08:29:37;22.30;59.90
9116;DHT22;4593;53.652;10.168;2023-07-22T08:32:03;22.90;59.30
9116;DHT22;4593;53.652;10.168;2023-07-22T08:34:29;23.40;59.70
9116;DHT22;4593;53.652;10.168;2023-07-22T08:36:54;23.40;58.30
9116;DHT22;4593;53.652;10.168;2023-07-22T08:39:20;22.90;57.60
9116;DHT22;4593;53.652;10.168;2023-07-22T08:41:48;22.70;56.40
9116;DHT22;4593;53.652;10.168;2023-07-22T08:44:19;22.50;56.50
9116;DHT22;4593;53.652;10.168;2023-07-22T08:46:47;22.10;58.20
9116;DHT22;4593;53.652;10.168;2023-07-22T08:49:15;21.60;57.30
9116;DHT22;4593;53.652;10.168;2023-07-22T08:51:41;21.60;59.00
9116;DHT22;4593;53.652;10.168;2023-07-22T08:54:07;21.60;59.40
9116;DHT22;4593;53.652;10.168;2023-07-22T08:56:34;21.80;60.00
9116;DHT22;4593;53.652;10.168;2023-07-22T08:59:01;21.80;59.10
9116;DHT22;4593;53.652;10.168;2023-07-22T09:01:27;22.00;58.10
9116;DHT22;4593;53.652;10.168;2023-07-22T09:03:54;22.10;56.20
9116;DHT22;4593;53.652;10.168;2023-07-22T09:06:22;22.00;56.40
9116;DHT22;4593;53.652;10.168;2023-07-22T09:08:48;22.00;56.20
9116;DHT22;4593;53.652;10.168;2023-07-22T09:11:14;22.60;56.70
9116;DHT22;4593;53.652;10.168;2023-07-22T09:13:41;23.10;54.50
9116;DHT22;4593;53.652;10.168;2023-07-22T09:16:10;22.90;49.90
9116;DHT22;4593;53.652;10.168;2023-07-22T09:18:36;22.60;52.10
9116;DHT22;4593;53.652;10.168;2023-07-22T09:21:03;22.70;55.10
9116;DHT22;4593;53.652;10.168;2023-07-22T09:23:37;22.90;53.20
9116;DHT22;4593;53.652;10.168;2023-07-22T09:26:15;22.60;50.10
9116;DHT22;4593;53.652;10.168;2023-07-22T09:31:21;22.50;53.90
9116;DHT22;4593;53.652;10.168;2023-07-22T09:33:47;22.80;55.10
9116;DHT22;4593;53.652;10.168;2023-07-22T09:36:13;22.90;55.00
9116;DHT22;4593;53.652;10.168;2023-07-22T09:38:39;23.10;53.10
9116;DHT22;4593;53.652;10.168;2023-07-22T09:41:05;23.20;52.10
9116;DHT22;4593;53.652;10.168;2023-07-22T09:43:31;23.20;52.10
9116;DHT22;4593;53.652;10.168;2023-07-22T09:46:06;23.10;53.70
9116;DHT22;4593;53.652;10.168;2023-07-22T09:48:42;23.30;51.70
9116;DHT22;4593;53.652;10.168;2023-07-22T09:51:13;23.40;51.70
9116;DHT22;4593;53.652;10.168;2023-07-22T09:53:47;23.00;50.10
9116;DHT22;4593;53.652;10.168;2023-07-22T09:56:13;22.80;50.50
9116;DHT22;4593;53.652;10.168;2023-07-22T09:58:39;22.60;50.20
9116;DHT22;4593;53.652;10.168;2023-07-22T10:01:05;22.90;50.70
9116;DHT22;4593;53.652;10.168;2023-07-22T10:03:33;23.20;50.20
9116;DHT22;4593;53.652;10.168;2023-07-22T10:06:03;23.10;48.70
9116;DHT22;4593;53.652;10.168;2023-07-22T10:08:34;22.90;49.70
9116;DHT22;4593;53.652;10.168;2023-07-22T10:11:01;23.00;55.20
9116;DHT22;4593;53.652;10.168;2023-07-22T10:13:28;23.30;52.70
9116;DHT22;4593;53.652;10.168;2023-07-22T10:15:54;23.50;50.30
9116;DHT22;4593;53.652;10.168;2023-07-22T10:18:21;23.30;49.90
9116;DHT22;4593;53.652;10.168;2023-07-22T10:20:48;23.40;49.30
9116;DHT22;4593;53.652;10.168;2023-07-22T10:23:15;23.40;50.90
9116;DHT22;4593;53.652;10.168;2023-07-22T10:25:42;23.50;50.70
9116;DHT22;4593;53.652;10.168;2023-07-22T10:28:08;23.60;50.30
9116;DHT22;4593;53.652;10.168;2023-07-22T10:30:35;23.60;49.70
9116;DHT22;4593;53.652;10.168;2023-07-22T10:33:00;23.40;50.30
9116;DHT22;4593;53.652;10.168;2023-07-22T10:38:11;22.90;50.70
9116;DHT22;4593;53.652;10.168;2023-07-22T10:43:16;22.10;50.70
9116;DHT22;4593;53.652;10.168;2023-07-22T10:45:48;22.10;51.00
9116;DHT22;4593;53.652;10.168;2023-07-22T10:48:14;22.10;53.30
9116;DHT22;4593;53.652;10.168;2023-07-22T10:50:47;22.00;51.40
9116;DHT22;4593;53.652;10.168;2023-07-22T10:53:37;22.00;52.10
9116;DHT22;4593;53.652;10.168;2023-07-22T11:06:29;22.10;48.70
9116;DHT22;4593;53.652;10.168;2023-07-22T11:08:55;22.20;49.60
9116;DHT22;4593;53.652;10.168;2023-07-22T11:11:22;22.40;48.40
9116;DHT22;4593;53.652;10.168;2023-07-22T11:14:25;22.60;53.90
9116;DHT22;4593;53.652;10.168;2023-07-22T11:16:52;22.70;49.60
9116;DHT22;4593;53.652;10.168;2023-07-22T11:19:19;22.50;47.50
9116;DHT22;4593;53.652;10.168;2023-07-22T11:21:47;22.20;49.90
9116;DHT22;4593;53.652;10.168;2023-07-22T11:24:14;22.10;53.50
9116;DHT22;4593;53.652;10.168;2023-07-22T11:26:40;22.00;53.30
9116;DHT22;4593;53.652;10.168;2023-07-22T11:29:07;22.00;51.70
9116;DHT22;4593;53.652;10.168;2023-07-22T11:31:35;22.10;50.80
9116;DHT22;4593;53.652;10.168;2023-07-22T11:34:05;22.00;48.60
9116;DHT22;4593;53.652;10.168;2023-07-22T11:36:31;22.00;53.40
9116;DHT22;4593;53.652;10.168;2023-07-22T11:39:08;22.20;52.00
9116;DHT22;4593;53.652;10.168;2023-07-22T11:41:35;22.60;49.90
9116;DHT22;4593;53.652;10.168;2023-07-22T11:44:02;23.00;49.20
9116;DHT22;4593;53.652;10.168;2023-07-22T11:46:34;23.30;48.30
9116;DHT22;4593;53.652;10.168;2023-07-22T11:49:00;23.30;48.40
9116;DHT22;4593;53.652;10.168;2023-07-22T11:51:26;23.40;49.40
9116;DHT22;4593;53.652;10.168;2023-07-22T11:53:54;23.80;48.50
9116;DHT22;4593;53.652;10.168;2023-07-22T11:56:26;24.20;47.70
9116;DHT22;4593;53.652;10.168;2023-07-22T11:58:54;24.70;47.50
9116;DHT22;4593;53.652;10.168;2023-07-22T12:01:20;25.10;48.10
9116;DHT22;4593;53.652;10.168;2023-07-22T12:03:46;25.20;46.90
9116;DHT22;4593;53.652;10.168;2023-07-22T12:06:12;25.40;44.20
9116;DHT22;4593;53.652;10.168;2023-07-22T12:08:48;25.80;47.20
9116;DHT22;4593;53.652;10.168;2023-07-22T12:11:22;25.70;45.40
9116;DHT22;4593;53.652;10.168;2023-07-22T12:14:07;25.80;45.20
9116;DHT22;4593;53.652;10.168;2023-07-22T12:16:35;26.10;43.90
9116;DHT22;4593;53.652;10.168;2023-07-22T12:19:03;26.30;43.10
9116;DHT22;4593;53.652;10.168;2023-07-22T12:21:28;26.40;42.60
9116;DHT22;4593;53.652;10.168;2023-07-22T12:23:54;25.80;43.20
9116;DHT22;4593;53.652;10.168;2023-07-22T12:26:20;25.70;44.50
9116;DHT22;4593;53.652;10.168;2023-07-22T12:28:46;25.90;44.40
9116;DHT22;4593;53.652;10.168;2023-07-22T12:31:12;25.90;43.00
9116;DHT22;4593;53.652;10.168;2023-07-22T12:33:37;25.50;42.50
9116;DHT22;4593;53.652;10.168;2023-07-22T12:36:03;25.50;45.40
9116;DHT22;4593;53.652;10.168;2023-07-22T12:38:29;25.40;45.30
9116;DHT22;4593;53.652;10.168;2023-07-22T12:40:54;25.00;46.70
9116;DHT22;4593;53.652;10.168;2023-07-22T12:43:20;24.70;48.10
9116;DHT22;4593;53.652;10.168;2023-07-22T12:45:46;24.60;46.20
9116;DHT22;4593;53.652;10.168;2023-07-22T12:48:11;24.60;46.60
9116;DHT22;4593;53.652;10.168;2023-07-22T12:50:37;24.70;47.90
9116;DHT22;4593;53.652;10.168;2023-07-22T12:53:03;24.50;47.80
9116;DHT22;4593;53.652;10.168;2023-07-22T12:55:29;24.40;48.80
9116;DHT22;4593;53.652;10.168;2023-07-22T12:57:54;23.80;49.40
9116;DHT22;4593;53.652;10.168;2023-07-22T13:00:20;23.20;52.30
9116;DHT22;4593;53.652;10.168;2023-07-22T13:02:47;22.60;57.00
9116;DHT22;4593;53.652;10.168;2023-07-22T13:05:13;21.90;60.30
9116;DHT22;4593;53.652;10.168;2023-07-22T13:07:39;21.00;62.70
9116;DHT22;4593;53.652;10.168;2023-07-22T13:10:05;19.80;65.70
9116;DHT22;4593;53.652;10.168;2023-07-22T13:12:36;18.90;70.10
9116;DHT22;4593;53.652;10.168;2023-07-22T13:15:03;18.50;73.30
9116;DHT22;4593;53.652;10.168;2023-07-22T13:17:28;18.30;75.20
9116;DHT22;4593;53.652;10.168;2023-07-22T13:19:54;18.00;77.50
9116;DHT22;4593;53.652;10.168;2023-07-22T13:22:20;17.90;78.30
9116;DHT22;4593;53.652;10.168;2023-07-22T13:24:45;18.10;79.20
9116;DHT22;4593;53.652;10.168;2023-07-22T13:27:11;18.30;79.00
9116;DHT22;4593;53.652;10.168;2023-07-22T13:29:37;18.40;78.30
9116;DHT22;4593;53.652;10.168;2023-07-22T13:32:03;18.50;78.20
9116;DHT22;4593;53.652;10.168;2023-07-22T13:34:29;18.60;78.30
9116;DHT22;4593;53.652;10.168;2023-07-22T13:36:55;18.60;77.50
9116;DHT22;4593;53.652;10.168;2023-07-22T13:39:21;18.70;78.20
9116;DHT22;4593;53.652;10.168;2023-07-22T13:41:46;18.90;77.40
9116;DHT22;4593;53.652;10.168;2023-07-22T13:44:13;19.30;78.80
9116;DHT22;4593;53.652;10.168;2023-07-22T13:46:38;20.00;78.10
9116;DHT22;4593;53.652;10.168;2023-07-22T13:49:04;20.60;76.40
9116;DHT22;4593;53.652;10.168;2023-07-22T13:51:30;20.90;72.20
9116;DHT22;4593;53.652;10.168;2023-07-22T13:53:55;21.20;71.80
9116;DHT22;4593;53.652;10.168;2023-07-22T13:56:23;21.60;71.20
9116;DHT22;4593;53.652;10.168;2023-07-22T13:58:49;21.50;70.10
9116;DHT22;4593;53.652;10.168;2023-07-22T14:01:15;21.00;70.80
9116;DHT22;4593;53.652;10.168;2023-07-22T14:03:40;20.70;72.90
9116;DHT22;4593;53.652;10.168;2023-07-22T14:06:06;20.40;75.20
9116;DHT22;4593;53.652;10.168;2023-07-22T14:08:31;20.10;74.80
9116;DHT22;4593;53.652;10.168;2023-07-22T14:10:59;19.90;75.60
9116;DHT22;4593;53.652;10.168;2023-07-22T14:13:24;20.10;77.30
9116;DHT22;4593;53.652;10.168;2023-07-22T14:15:50;20.50;76.80
9116;DHT22;4593;53.652;10.168;2023-07-22T14:18:16;21.10;76.10
9116;DHT22;4593;53.652;10.168;2023-07-22T14:20:44;21.60;74.60
9116;DHT22;4593;53.652;10.168;2023-07-22T14:23:10;22.20;73.30
9116;DHT22;4593;53.652;10.168;2023-07-22T14:25:36;22.40;71.30
9116;DHT22;4593;53.652;10.168;2023-07-22T14:28:02;22.30;71.30
9116;DHT22;4593;53.652;10.168;2023-07-22T14:30:28;22.20;72.00
9116;DHT22;4593;53.652;10.168;2023-07-22T14:32:53;22.20;72.10
9116;DHT22;4593;53.652;10.168;2023-07-22T14:35:19;22.30;71.10
9116;DHT22;4593;53.652;10.168;2023-07-22T14:37:45;22.10;68.60
9116;DHT22;4593;53.652;10.168;2023-07-22T14:40:11;21.80;68.60
9116;DHT22;4593;53.652;10.168;2023-07-22T14:42:37;21.70;69.90
9116;DHT22;4593;53.652;10.168;2023-07-22T14:45:03;21.70;69.60
9116;DHT22;4593;53.652;10.168;2023-07-22T14:47:30;21.70;69.30
9116;DHT22;4593;53.652;10.168;2023-07-22T14:49:56;22.00;70.50
9116;DHT22;4593;53.652;10.168;2023-07-22T14:52:22;22.30;67.90
9116;DHT22;4593;53.652;10.168;2023-07-22T14:54:48;22.50;67.60
9116;DHT22;4593;53.652;10.168;2023-07-22T14:57:16;22.40;68.20
9116;DHT22;4593;53.652;10.168;2023-07-22T14:59:42;22.00;70.30
9116;DHT22;4593;53.652;10.168;2023-07-22T15:02:08;21.80;71.30
9116;DHT22;4593;53.652;10.168;2023-07-22T15:04:33;21.80;71.50
9116;DHT22;4593;53.652;10.168;2023-07-22T15:06:59;21.80;71.50
9116;DHT22;4593;53.652;10.168;2023-07-22T15:09:25;21.60;72.00
9116;DHT22;4593;53.652;10.168;2023-07-22T15:11:50;21.50;72.00
9116;DHT22;4593;53.652;10.168;2023-07-22T15:14:16;21.30;71.80
9116;DHT22;4593;53.652;10.168;2023-07-22T15:16:42;21.30;71.80
9116;DHT22;4593;53.652;10.168;2023-07-22T15:19:09;21.30;71.40
9116;DHT22;4593;53.652;10.168;2023-07-22T15:21:34;21.50;71.80
9116;DHT22;4593;53.652;10.168;2023-07-22T15:24:00;21.60;70.70
9116;DHT22;4593;53.652;10.168;2023-07-22T15:26:26;21.50;70.70
9116;DHT22;4593;53.652;10.168;2023-07-22T15:28:53;21.30;71.20
9116;DHT22;4593;53.652;10.168;2023-07-22T15:31:19;21.10;71.90
9116;DHT22;4593;53.652;10.168;2023-07-22T15:33:45;21.10;72.70
9116;DHT22;4593;53.652;10.168;2023-07-22T15:36:11;21.10;72.80
9116;DHT22;4593;53.652;10.168;2023-07-22T15:38:37;21.10;73.00
9116;DHT22;4593;53.652;10.168;2023-07-22T15:41:02;21.10;71.90
9116;DHT22;4593;53.652;10.168;2023-07-22T15:43:28;21.00;71.90
9116;DHT22;4593;53.652;10.168;2023-07-22T15:45:54;20.90;72.30
9116;DHT22;4593;53.652;10.168;2023-07-22T15:48:20;20.70;72.70
9116;DHT22;4593;53.652;10.168;2023-07-22T15:50:46;20.60;72.50
9116;DHT22;4593;53.652;10.168;2023-07-22T15:53:14;20.50;73.70
9116;DHT22;4593;53.652;10.168;2023-07-22T15:55:40;20.40;74.50
9116;DHT22;4593;53.652;10.168;2023-07-22T15:58:06;20.30;74.10
9116;DHT22;4593;53.652;10.168;2023-07-22T16:00:31;20.20;74.70